Time;durP1;ratioP1;P1;durP2;ratioP2;P2;SDS_P1;SDS_P2;PMS_P1;PMS_P2;Temp;Humidity;BMP_temperature;BMP_pressure;BME280_temperature;BME280_humidity;BME280_pressure;Samples;Min_cycle;Max_cycle;Signal;HPM_P1;HPM_P2
2023/02/09 00:00:18;;;;;;;;;;;4.60;55.10;;;3.44;43.93;102215.97;4990408;28;19936;-84
2023/02/09 00:02:46;;;;;;;;;;;4.60;54.60;;;3.41;44.13;102214.41;4990650;28;19929;-84
2023/02/09 00:05:13;;;;;;;;;;;4.60;55.10;;;3.36;44.21;102212.13;4988317;28;19930;-84
2023/02/09 00:07:40;;;;;;;;;;;4.60;54.80;;;3.40;45.00;102210.09;4988975;28;19937;-84
2023/02/09 00:10:07;;;;;;;;;;;4.60;55.70;;;3.36;44.73;102206.00;4990319;28;19936;-84
2023/02/09 00:15:21;;;;;;;;;;;4.60;56.50;;;3.42;44.82;102204.72;4990765;28;19926;-83
2023/02/09 00:17:48;;;;;;;;;;;4.60;55.70;;;3.42;44.89;102202.91;4988828;28;19961;-84
2023/02/09 00:20:15;;;;;;;;;;;4.60;56.00;;;3.40;44.52;102193.44;4995310;28;20390;-84
2023/02/09 00:22:42;;;;;;;;;;;4.60;55.30;;;3.40;44.32;102193.44;4987919;28;19929;-84
2023/02/09 00:25:09;;;;;;;;;;;4.60;55.00;;;3.39;44.67;102192.59;4981510;28;19934;-84
2023/02/09 00:27:37;;;;;;;;;;;4.50;55.50;;;3.38;43.88;102187.44;4983179;28;20393;-84
2023/02/09 00:30:05;;;;;;;;;;;4.50;54.60;;;3.38;44.15;102184.81;4990101;28;19929;-84
2023/02/09 00:32:32;;;;;;;;;;;4.50;55.60;;;3.27;43.62;102188.28;4989401;28;19930;-84
2023/02/09 00:34:59;;;;;;;;;;;4.50;54.10;;;3.27;44.50;102186.50;5004291;28;19931;-83
2023/02/09 00:37:28;;;;;;;;;;;4.50;55.30;;;3.18;44.02;102183.75;4992835;28;19984;-83
2023/02/09 00:39:55;;;;;;;;;;;4.40;54.70;;;3.25;45.01;102187.56;4983135;28;19930;-84
2023/02/09 00:42:22;;;;;;;;;;;4.40;55.80;;;3.30;45.14;102182.78;4988219;28;20036;-84
2023/02/09 00:44:51;;;;;;;;;;;4.50;56.10;;;3.34;45.20;102181.56;5009630;28;20024;-83
2023/02/09 00:47:18;;;;;;;;;;;4.50;56.50;;;3.35;45.27;102178.81;5003086;28;19972;-84
2023/02/09 00:49:45;;;;;;;;;;;4.50;56.30;;;3.39;45.07;102179.41;4990123;28;20024;-83
2023/02/09 00:52:12;;;;;;;;;;;4.50;56.30;;;3.38;44.84;102179.53;4988476;28;19988;-84
2023/02/09 00:54:40;;;;;;;;;;;4.50;56.00;;;3.38;45.35;102167.19;4981821;28;20428;-84
2023/02/09 00:57:07;;;;;;;;;;;4.60;56.30;;;3.39;44.91;102162.75;4985984;28;19930;-84
2023/02/09 00:59:35;;;;;;;;;;;4.50;56.10;;;3.39;45.35;102176.78;4990103;28;19961;-84
2023/02/09 01:02:03;;;;;;;;;;;4.50;56.30;;;3.36;44.79;102169.09;5002445;28;19984;-83
2023/02/09 01:04:31;;;;;;;;;;;4.50;56.40;;;3.40;45.28;102178.44;4989042;28;19937;-83
2023/02/09 01:06:58;;;;;;;;;;;4.50;56.50;;;3.39;45.39;102170.66;4991799;28;19926;-84
2023/02/09 01:09:25;;;;;;;;;;;4.50;56.40;;;3.40;45.30;102164.41;4989104;28;19936;-84
2023/02/09 01:11:52;;;;;;;;;;;4.50;56.70;;;3.36;45.54;102177.00;4983905;28;19931;-84
2023/02/09 01:14:19;;;;;;;;;;;4.50;56.50;;;3.38;45.33;102176.91;4987628;28;19926;-84
2023/02/09 01:16:46;;;;;;;;;;;4.50;56.90;;;3.32;45.10;102175.59;4992211;28;19937;-84
2023/02/09 01:19:14;;;;;;;;;;;4.40;56.30;;;3.35;45.40;102170.91;5005709;28;19926;-83
2023/02/09 01:21:41;;;;;;;;;;;4.50;57.00;;;3.30;45.15;102164.31;4996118;28;19926;-84
2023/02/09 01:24:12;;;;;;;;;;;4.50;56.70;;;3.32;45.60;102160.59;4989682;28;19937;-84
2023/02/09 01:26:39;;;;;;;;;;;4.50;57.10;;;3.32;45.61;102157.97;4986328;28;19930;-84
2023/02/09 01:29:06;;;;;;;;;;;4.40;56.60;;;3.31;45.08;102158.06;4983555;28;19937;-84
2023/02/09 01:31:34;;;;;;;;;;;4.50;56.60;;;3.30;45.11;102161.69;4995264;28;19930;-84
2023/02/09 01:34:03;;;;;;;;;;;4.50;56.70;;;3.27;45.26;102162.78;5023972;28;20021;-84
2023/02/09 01:36:32;;;;;;;;;;;4.40;56.90;;;3.21;45.17;102168.50;4993234;28;20312;-84
2023/02/09 01:39:01;;;;;;;;;;;4.40;56.70;;;3.13;44.99;102170.09;4991083;28;19930;-83
2023/02/09 01:41:29;;;;;;;;;;;4.30;56.30;;;3.16;45.61;102167.19;4990392;28;19941;-84
2023/02/09 01:43:58;;;;;;;;;;;4.30;57.10;;;3.14;44.93;102163.84;5000435;28;20349;-83
2023/02/09 01:46:28;;;;;;;;;;;4.30;56.60;;;3.07;44.52;102161.72;4991311;28;19934;-83
2023/02/09 01:49:01;;;;;;;;;;;4.30;55.50;;;3.03;45.15;102146.25;4993363;28;19936;-84
2023/02/09 01:51:29;;;;;;;;;;;4.20;56.80;;;3.09;46.05;102151.88;4993398;28;19936;-83
2023/02/09 01:54:04;;;;;;;;;;;4.20;56.70;;;3.07;45.66;102155.56;4992135;28;19930;-84
2023/02/09 01:56:31;;;;;;;;;;;4.30;57.10;;;3.05;46.10;102153.06;4994987;28;19929;-83
2023/02/09 01:58:59;;;;;;;;;;;4.30;57.00;;;3.05;46.21;102155.72;4995333;28;20006;-83
2023/02/09 02:01:26;;;;;;;;;;;4.20;57.10;;;3.10;46.45;102150.06;4987708;28;19942;-84
2023/02/09 02:03:54;;;;;;;;;;;4.30;57.50;;;3.05;45.57;102155.72;4987265;28;20006;-83
2023/02/09 02:06:21;;;;;;;;;;;4.30;57.00;;;3.07;45.83;102145.03;4986388;28;19929;-83
2023/02/09 02:08:52;;;;;;;;;;;4.20;57.00;;;3.08;46.13;102144.09;4991360;28;19940;-83
2023/02/09 02:11:22;;;;;;;;;;;4.20;56.80;;;3.09;46.17;102146.59;4991813;28;19934;-83
2023/02/09 02:13:52;;;;;;;;;;;4.30;57.90;;;3.12;45.81;102140.22;5021561;28;20352;-83
2023/02/09 02:16:45;;;;;;;;;;;4.30;57.00;;;3.10;45.64;102144.81;4997225;28;19976;-83
2023/02/09 02:19:32;;;;;;;;;;;4.30;56.90;;;3.08;45.65;102134.38;4987893;28;19925;-83
2023/02/09 02:22:16;;;;;;;;;;;4.30;57.30;;;3.00;45.82;102142.06;4991062;28;19930;-83
2023/02/09 02:25:21;;;;;;;;;;;4.20;56.70;;;3.01;45.44;102141.09;5011321;28;19926;-83
2023/02/09 02:27:59;;;;;;;;;;;4.20;56.80;;;3.08;46.01;102158.13;4985252;28;20016;-83
2023/02/09 02:30:42;;;;;;;;;;;4.20;56.90;;;3.06;45.93;102138.94;4991869;28;20193;-83
2023/02/09 02:33:24;;;;;;;;;;;4.20;57.20;;;3.10;46.41;102140.38;4991052;28;19973;-83
2023/02/09 02:35:55;;;;;;;;;;;4.20;57.10;;;3.12;46.22;102134.97;4984192;28;19965;-83
2023/02/09 02:38:31;;;;;;;;;;;4.20;57.30;;;3.11;45.91;102133.28;4992592;28;19947;-84
2023/02/09 02:41:02;;;;;;;;;;;4.20;56.50;;;3.14;45.93;102140.13;4991581;28;19936;-83
2023/02/09 02:43:40;;;;;;;;;;;4.20;57.10;;;3.15;46.17;102144.44;4991930;28;20340;-83
2023/02/09 02:46:10;;;;;;;;;;;4.20;57.30;;;3.12;45.62;102149.94;4995356;28;19953;-84
2023/02/09 02:48:42;;;;;;;;;;;4.20;56.50;;;3.15;45.90;102149.72;4995905;28;19930;-83
2023/02/09 02:51:14;;;;;;;;;;;4.30;57.20;;;3.16;46.22;102152.22;4990467;28;20020;-83
2023/02/09 02:53:44;;;;;;;;;;;4.30;57.20;;;3.17;46.08;102153.88;4984989;28;20393;-83
2023/02/09 02:56:15;;;;;;;;;;;4.40;56.90;;;3.12;45.83;102148.16;4989922;28;19937;-83
2023/02/09 02:58:44;;;;;;;;;;;4.30;57.10;;;3.10;45.97;102148.28;4990965;28;19936;-83
2023/02/09 03:01:14;;;;;;;;;;;4.30;56.70;;;3.08;45.89;102144.09;4991532;28;19930;-83
2023/02/09 03:03:44;;;;;;;;;;;4.20;57.00;;;3.08;45.81;102144.09;5023234;22;19936;-75
2023/02/09 03:06:12;;;;;;;;;;;4.20;56.30;;;3.05;46.03;102142.53;5014127;28;20413;-76
2023/02/09 03:08:51;;;;;;;;;;;4.20;56.80;;;2.99;46.39;102143.03;4986857;28;19935;-75
2023/02/09 03:11:19;;;;;;;;;;;4.20;57.60;;;3.03;46.06;102147.09;5000937;28;19930;-76
2023/02/09 03:14:12;;;;;;;;;;;4.20;56.90;;;3.05;45.69;102142.53;4993734;28;19930;-76
2023/02/09 03:20:31;;;;;;;;;;;4.20;57.50;;;3.05;45.99;102150.44;5007049;28;20360;-76
2023/02/09 03:23:02;;;;;;;;;;;4.20;56.30;;;3.04;45.72;102140.03;5011110;28;19964;-76
2023/02/09 03:25:32;;;;;;;;;;;4.10;56.30;;;3.05;46.32;102134.63;5008031;28;19933;-76
2023/02/09 03:28:02;;;;;;;;;;;4.20;56.70;;;3.01;46.18;102134.97;5009493;28;19936;-76
2023/02/09 03:30:30;;;;;;;;;;;4.10;56.90;;;3.03;46.54;102133.09;5015671;28;20438;-76
2023/02/09 03:32:57;;;;;;;;;;;4.10;57.80;;;3.05;46.28;102139.91;5010809;28;20484;-76
2023/02/09 03:35:31;;;;;;;;;;;4.20;57.40;;;3.01;46.63;102142.88;5010820;28;19929;-76
2023/02/09 03:38:00;;;;;;;;;;;4.10;57.50;;;3.00;46.21;102136.78;4995891;28;19925;-75
2023/02/09 03:40:27;;;;;;;;;;;4.10;57.50;;;2.95;45.73;102132.84;4995087;28;19936;-75
2023/02/09 03:42:54;;;;;;;;;;;4.10;56.60;;;2.93;45.90;102140.88;4991668;28;20313;-76
2023/02/09 03:45:21;;;;;;;;;;;4.10;57.00;;;2.98;46.42;102141.34;5008337;28;20377;-76
2023/02/09 03:47:48;;;;;;;;;;;4.10;57.70;;;2.94;46.29;102129.38;5010453;28;20445;-75
2023/02/09 03:50:15;;;;;;;;;;;4.10;57.50;;;2.98;46.27;102130.81;5017753;28;19929;-76
2023/02/09 03:52:44;;;;;;;;;;;4.10;57.30;;;2.98;46.76;102127.34;5010077;28;19941;-75
2023/02/09 03:55:11;;;;;;;;;;;4.10;57.80;;;2.94;45.96;102128.53;5010202;28;19929;-76
2023/02/09 03:57:38;;;;;;;;;;;4.10;56.90;;;2.92;46.29;102128.63;5009796;28;19933;-75
2023/02/09 04:00:06;;;;;;;;;;;4.10;57.40;;;2.90;46.59;102125.28;5007427;28;19929;-75
2023/02/09 04:02:38;;;;;;;;;;;4.00;57.80;;;2.87;46.11;102117.63;5009779;28;19925;-76
2023/02/09 04:05:06;;;;;;;;;;;4.00;56.90;;;2.89;46.48;102106.97;5017851;28;20016;-76
2023/02/09 04:07:33;;;;;;;;;;;4.00;57.30;;;2.91;46.76;102113.78;5010289;28;19925;-76
2023/02/09 04:10:02;;;;;;;;;;;4.00;57.80;;;2.86;46.23;102108.03;5007497;28;19936;-76
2023/02/09 04:12:29;;;;;;;;;;;4.00;57.20;;;2.87;46.69;102107.06;5009761;28;19933;-75
2023/02/09 04:14:55;;;;;;;;;;;4.00;57.70;;;2.85;46.64;102101.09;5010519;28;19933;-76
2023/02/09 04:17:22;;;;;;;;;;;3.90;58.00;;;2.90;46.68;102109.47;5007316;28;20312;-76
2023/02/09 04:19:49;;;;;;;;;;;4.00;58.10;;;2.91;46.59;102105.03;4999907;28;20035;-76
2023/02/09 04:22:16;;;;;;;;;;;4.00;57.90;;;2.92;46.80;102107.56;5007361;28;19933;-75
2023/02/09 04:24:44;;;;;;;;;;;4.10;58.50;;;2.95;46.87;102102.06;5009471;28;19931;-76
2023/02/09 04:27:12;;;;;;;;;;;4.10;58.20;;;2.96;46.56;102095.81;5018039;28;19929;-76
2023/02/09 04:29:39;;;;;;;;;;;4.10;57.70;;;2.96;46.80;102103.72;5018923;28;19955;-76
2023/02/09 04:32:06;;;;;;;;;;;4.10;58.20;;;2.96;46.44;102097.63;5010323;28;20031;-76
2023/02/09 04:34:33;;;;;;;;;;;4.10;57.90;;;2.94;46.75;102095.13;5004183;28;20370;-75
2023/02/09 04:37:00;;;;;;;;;;;4.10;58.10;;;2.93;46.97;102097.84;5005277;28;19934;-76
2023/02/09 04:39:27;;;;;;;;;;;4.10;58.30;;;2.93;46.74;102093.44;5016184;28;19929;-76
2023/02/09 04:41:54;;;;;;;;;;;4.10;58.00;;;2.92;46.88;102096.19;5009737;28;19926;-75
2023/02/09 04:44:22;;;;;;;;;;;4.10;57.90;;;2.93;46.68;102088.16;5009675;28;19929;-76
2023/02/09 04:46:49;;;;;;;;;;;4.10;57.80;;;2.93;46.54;102080.28;5009146;28;19925;-76
2023/02/09 04:49:16;;;;;;;;;;;4.10;57.90;;;2.91;46.95;102087.44;5008362;28;20310;-76
2023/02/09 04:51:43;;;;;;;;;;;4.00;58.10;;;2.90;46.67;102085.75;5006679;28;19929;-76
2023/02/09 04:54:11;;;;;;;;;;;4.00;58.10;;;2.92;46.70;102077.72;5009097;28;19929;-77
2023/02/09 04:56:38;;;;;;;;;;;4.00;57.90;;;2.93;46.60;102076.75;4999203;28;19930;-76
2023/02/09 05:01:51;;;;;;;;;;;4.00;57.50;;;2.91;46.81;102078.69;5008791;28;19929;-77
2023/02/09 05:04:18;;;;;;;;;;;4.10;57.90;;;2.92;46.57;102077.72;5009991;28;19983;-77
2023/02/09 05:06:45;;;;;;;;;;;4.10;58.10;;;2.89;46.75;102070.91;5002407;28;19929;-77
2023/02/09 05:09:12;;;;;;;;;;;4.00;57.90;;;2.92;46.54;102072.47;5013699;28;19929;-77
2023/02/09 05:11:39;;;;;;;;;;;4.00;57.70;;;2.88;46.77;102077.16;5010517;28;19925;-76
2023/02/09 05:14:06;;;;;;;;;;;4.00;58.40;;;2.88;46.51;102079.78;4996425;28;19956;-76
2023/02/09 05:16:33;;;;;;;;;;;4.00;57.80;;;2.88;46.92;102086.84;5017440;28;19929;-76
2023/02/09 05:19:01;;;;;;;;;;;4.00;58.10;;;2.89;46.41;102091.16;5030631;28;19940;-77
2023/02/09 05:21:28;;;;;;;;;;;4.00;57.40;;;2.87;46.74;102091.25;5007942;28;19929;-76
2023/02/09 05:23:55;;;;;;;;;;;4.00;58.10;;;2.86;46.83;102089.59;5011140;28;19929;-76
2023/02/09 05:26:22;;;;;;;;;;;4.00;58.10;;;2.82;45.71;102088.16;5013557;28;19929;-76
2023/02/09 05:28:49;;;;;;;;;;;4.00;57.10;;;2.77;46.81;102092.94;5011484;28;20393;-76
2023/02/09 05:31:17;;;;;;;;;;;3.90;58.10;;;2.77;47.04;102085.88;5017552;28;19933;-76
2023/02/09 05:33:43;;;;;;;;;;;3.90;58.20;;;2.78;47.02;102090.22;5037947;28;19993;-76
2023/02/09 05:36:12;;;;;;;;;;;3.90;58.20;;;2.79;46.87;102085.78;5040552;28;20002;-77
2023/02/09 05:38:39;;;;;;;;;;;3.90;58.10;;;2.77;47.01;102085.06;5026447;28;19960;-76
2023/02/09 05:41:07;;;;;;;;;;;3.90;58.10;;;2.80;46.54;102087.44;5009086;28;19937;-75
2023/02/09 05:43:34;;;;;;;;;;;3.90;57.80;;;2.77;46.62;102079.78;5006436;28;19932;-75
2023/02/09 05:46:01;;;;;;;;;;;3.90;58.30;;;2.74;46.78;102077.41;4997214;28;19926;-75
2023/02/09 05:48:29;;;;;;;;;;;3.90;58.10;;;2.74;46.82;102066.88;5007374;28;20389;-75
2023/02/09 05:50:56;;;;;;;;;;;3.90;58.10;;;2.75;46.79;102058.84;5007197;28;19940;-77
2023/02/09 05:53:24;;;;;;;;;;;3.90;58.10;;;2.71;46.40;102057.41;5002630;28;20020;-75
2023/02/09 05:55:51;;;;;;;;;;;3.90;57.30;;;2.69;46.95;102061.97;5000562;28;19965;-76
2023/02/09 05:58:18;;;;;;;;;;;3.90;58.50;;;2.70;47.28;102066.25;5003449;28;19930;-76
2023/02/09 06:00:45;;;;;;;;;;;3.90;58.80;;;2.69;47.23;102059.31;5004992;28;19925;-76
2023/02/09 06:03:12;;;;;;;;;;;3.90;58.90;;;2.72;47.28;102074.88;5010902;28;19936;-76
2023/02/09 06:05:39;;;;;;;;;;;3.90;58.70;;;2.74;47.38;102072.13;4991082;28;19977;-76
2023/02/09 06:08:05;;;;;;;;;;;3.90;58.70;;;2.79;46.93;102075.25;5008853;28;20001;-76
2023/02/09 06:10:34;;;;;;;;;;;3.90;58.50;;;2.82;46.86;102072.34;5009700;28;19928;-76
2023/02/09 06:13:01;;;;;;;;;;;4.00;58.00;;;2.84;46.62;102073.91;5007856;28;19929;-84
2023/02/09 06:15:28;;;;;;;;;;;4.00;58.40;;;2.86;46.54;102076.41;4991781;28;20048;-79
2023/02/09 06:17:55;;;;;;;;;;;4.00;57.70;;;2.87;46.59;102082.53;5005418;28;20082;-79
2023/02/09 06:20:22;;;;;;;;;;;4.00;58.10;;;2.87;46.64;102083.38;5006858;28;19929;-85
2023/02/09 06:22:49;;;;;;;;;;;4.00;57.70;;;2.88;46.59;102089.47;5012081;28;19929;-85
2023/02/09 06:25:16;;;;;;;;;;;4.00;57.70;;;2.88;46.15;102086.84;5012282;28;19929;-88
2023/02/09 06:27:45;;;;;;;;;;;4.00;57.50;;;2.83;46.46;102089.81;5008583;28;19933;-85
2023/02/09 06:30:13;;;;;;;;;;;3.90;57.50;;;2.80;46.57;102100.63;5012492;28;19929;-84
2023/02/09 06:32:39;;;;;;;;;;;4.00;57.70;;;2.81;46.47;102097.03;4990539;28;19929;-84
2023/02/09 06:35:07;;;;;;;;;;;4.00;57.70;;;2.80;46.68;102098.00;4992578;28;19940;-84
2023/02/09 06:37:33;;;;;;;;;;;4.00;57.90;;;2.80;46.59;102092.72;5007093;28;19936;-85
2023/02/09 06:40:00;;;;;;;;;;;4.00;57.80;;;2.80;46.55;102093.56;5016117;28;19930;-85
2023/02/09 06:42:42;;;;;;;;;;;4.00;57.90;;;2.79;46.64;102101.59;5012472;28;19941;-85
2023/02/09 06:45:11;;;;;;;;;;;4.00;57.90;;;2.78;46.80;102105.16;5011981;28;19930;-83
2023/02/09 06:47:40;;;;;;;;;;;4.00;58.00;;;2.77;46.75;102106.13;4996963;28;19987;-83
2023/02/09 06:50:08;;;;;;;;;;;4.00;58.10;;;2.75;46.64;102100.97;5006110;28;20449;-83
2023/02/09 06:52:35;;;;;;;;;;;4.00;57.90;;;2.78;46.92;102107.78;5015747;28;19960;-83
2023/02/09 06:55:02;;;;;;;;;;;4.00;58.40;;;2.76;46.80;102109.72;5014949;28;19932;-83
2023/02/09 06:57:29;;;;;;;;;;;4.00;58.30;;;2.75;47.09;102108.06;5020066;28;19936;-83
2023/02/09 06:59:56;;;;;;;;;;;4.10;58.30;;;2.76;46.65;102112.34;4993545;28;19933;-83
2023/02/09 07:02:25;;;;;;;;;;;3.90;57.70;;;2.77;46.68;102112.22;5009260;28;19933;-83
2023/02/09 07:04:51;;;;;;;;;;;3.90;57.90;;;2.77;46.96;102119.28;4995636;28;19930;-83
2023/02/09 07:07:18;;;;;;;;;;;3.90;58.30;;;2.74;46.91;102125.66;5016956;28;19933;-84
2023/02/09 07:09:45;;;;;;;;;;;3.90;57.90;;;2.74;46.98;102130.09;5019112;28;19926;-83
2023/02/09 07:12:12;;;;;;;;;;;3.90;58.20;;;2.72;47.23;102134.63;5011414;28;19944;-83
2023/02/09 07:14:39;;;;;;;;;;;3.90;58.50;;;2.72;47.09;102126.72;5013164;28;19937;-83
2023/02/09 07:17:06;;;;;;;;;;;3.90;58.50;;;2.72;46.92;102122.28;5010081;28;19952;-83
2023/02/09 07:19:34;;;;;;;;;;;3.90;58.10;;;2.71;47.25;102132.94;5015121;28;20015;-83
2023/02/09 07:22:01;;;;;;;;;;;3.90;58.60;;;2.71;47.29;102122.41;5014318;28;19929;-83
2023/02/09 07:24:28;;;;;;;;;;;3.90;58.30;;;2.70;47.23;102113.69;4993043;28;19929;-83
2023/02/09 07:26:55;;;;;;;;;;;3.90;58.50;;;2.72;47.20;102111.75;5017080;28;19928;-83
2023/02/09 07:29:22;;;;;;;;;;;3.90;58.50;;;2.74;47.20;102109.84;5019907;28;19935;-83
2023/02/09 07:31:49;;;;;;;;;;;3.90;58.50;;;2.75;46.87;102108.88;5010429;28;19933;-83
2023/02/09 07:34:16;;;;;;;;;;;3.90;57.90;;;2.72;47.05;102114.38;5004245;28;20286;-83
2023/02/09 07:36:45;;;;;;;;;;;3.90;58.30;;;2.76;47.08;102113.19;5010919;28;19929;-84
2023/02/09 07:39:12;;;;;;;;;;;3.90;58.30;;;2.77;47.06;102124.56;5011071;28;19930;-84
2023/02/09 07:41:39;;;;;;;;;;;3.90;58.50;;;2.78;46.84;102126.22;5012452;28;20437;-84
2023/02/09 07:44:06;;;;;;;;;;;3.90;58.50;;;2.79;46.84;102127.94;5011004;28;19927;-83
2023/02/09 07:46:33;;;;;;;;;;;3.90;58.30;;;2.81;46.89;102116.31;5012178;28;20314;-84
2023/02/09 07:49:00;;;;;;;;;;;3.90;58.40;;;2.84;46.79;102112.59;5022540;28;19940;-84
2023/02/09 07:51:27;;;;;;;;;;;4.00;58.20;;;2.85;47.10;102122.19;5009789;28;19933;-84
2023/02/09 07:53:57;;;;;;;;;;;4.00;58.30;;;2.83;47.27;102111.78;5006530;28;19929;-83
2023/02/09 07:56:24;;;;;;;;;;;4.00;58.10;;;2.87;46.86;102120.25;5004417;28;19929;-83
2023/02/09 07:58:52;;;;;;;;;;;4.00;58.10;;;2.88;46.99;102132.50;4996814;28;19926;-83
2023/02/09 08:01:19;;;;;;;;;;;4.00;58.50;;;2.89;47.12;102120.16;5020308;28;19930;-83
2023/02/09 08:03:47;;;;;;;;;;;4.00;58.50;;;2.90;46.93;102125.28;5026701;28;20005;-83
2023/02/09 08:06:18;;;;;;;;;;;4.00;58.30;;;2.87;46.93;102112.34;4996045;28;19929;-83
2023/02/09 08:08:45;;;;;;;;;;;4.00;58.30;;;2.87;46.50;102109.72;5010320;28;19983;-82
2023/02/09 08:11:15;;;;;;;;;;;4.00;57.90;;;2.88;47.12;102114.03;5010481;28;19929;-84
2023/02/09 08:13:42;;;;;;;;;;;4.00;58.50;;;2.88;46.89;102114.03;5010760;28;19932;-84
2023/02/09 08:16:11;;;;;;;;;;;4.00;58.20;;;2.88;46.94;102121.94;4990567;28;19936;-82
2023/02/09 08:18:40;;;;;;;;;;;4.00;58.20;;;2.91;46.83;102131.41;5002969;28;19931;-83
2023/02/09 08:21:09;;;;;;;;;;;4.00;58.00;;;2.98;47.11;102138.72;5010651;28;19933;-82
2023/02/09 08:23:36;;;;;;;;;;;4.00;58.30;;;2.99;47.32;102137.75;4986969;28;20297;-83
2023/02/09 08:26:06;;;;;;;;;;;4.10;59.10;;;3.01;46.88;102142.88;5004935;28;20287;-85
2023/02/09 08:28:35;;;;;;;;;;;4.10;58.30;;;2.99;46.72;102155.38;5008563;28;19929;-83
2023/02/09 08:31:02;;;;;;;;;;;4.10;58.50;;;2.99;46.97;102156.19;5000264;28;19929;-82
2023/02/09 08:33:29;;;;;;;;;;;4.10;58.70;;;2.96;46.81;102151.16;5011045;28;19935;-82
2023/02/09 08:35:56;;;;;;;;;;;4.10;58.50;;;2.95;46.57;102154.75;5012484;28;19952;-81
2023/02/09 08:38:23;;;;;;;;;;;4.10;57.90;;;2.96;46.64;102161.69;5003758;28;20019;-81
2023/02/09 08:40:50;;;;;;;;;;;4.10;58.30;;;2.98;46.47;102161.59;5010948;28;19929;-81
2023/02/09 08:43:17;;;;;;;;;;;4.10;58.30;;;3.00;46.59;102167.56;5019416;28;19932;-83
2023/02/09 08:45:45;;;;;;;;;;;4.10;58.10;;;2.98;46.67;102165.06;5010048;28;20477;-81
2023/02/09 08:48:12;;;;;;;;;;;4.10;58.30;;;2.96;46.69;102169.59;5007104;28;19932;-82
2023/02/09 08:50:39;;;;;;;;;;;4.10;58.10;;;2.99;46.98;102172.00;5009800;28;19936;-82
2023/02/09 08:53:06;;;;;;;;;;;4.10;58.30;;;3.04;46.46;102172.50;5008689;28;19929;-79
2023/02/09 08:55:34;;;;;;;;;;;4.10;58.10;;;3.01;46.19;102169.25;5005475;28;19934;-79
2023/02/09 08:58:01;;;;;;;;;;;4.10;57.50;;;3.03;46.88;102172.63;5010231;28;19930;-79
2023/02/09 09:00:28;;;;;;;;;;;4.10;58.50;;;3.00;46.59;102168.41;5029787;28;19929;-78
2023/02/09 09:02:56;;;;;;;;;;;4.10;58.10;;;3.05;46.41;102181.22;5004522;28;19936;-79
2023/02/09 09:05:23;;;;;;;;;;;4.10;57.90;;;3.04;45.89;102177.75;5025692;23;21104;-87
2023/02/09 09:07:50;;;;;;;;;;;4.20;57.40;;;3.02;46.47;102171.75;4990095;28;20026;-86
2023/02/09 09:10:18;;;;;;;;;;;4.10;57.90;;;3.04;46.58;102175.13;5008705;28;19932;-86
2023/02/09 09:12:44;;;;;;;;;;;4.20;57.90;;;3.04;46.09;102177.75;5007767;28;19930;-87
2023/02/09 09:15:12;;;;;;;;;;;4.20;57.80;;;3.04;46.34;102177.75;5003491;28;20453;-86
2023/02/09 09:17:39;;;;;;;;;;;4.10;57.80;;;3.03;46.13;102191.91;4991605;28;20365;-87
2023/02/09 09:20:08;;;;;;;;;;;4.20;58.00;;;2.99;46.61;102187.81;5009436;28;20036;-87
2023/02/09 09:22:35;;;;;;;;;;;4.10;58.10;;;3.00;46.09;102183.38;4978342;28;19932;-87
2023/02/09 09:25:03;;;;;;;;;;;4.10;57.90;;;3.01;47.11;102185.06;5009625;28;19925;-87
2023/02/09 09:27:31;;;;;;;;;;;4.10;58.10;;;3.00;46.55;102200.03;5001571;28;19929;-87
2023/02/09 09:29:58;;;;;;;;;;;4.10;57.90;;;3.01;46.39;102198.22;5007694;28;19933;-86
2023/02/09 09:32:25;;;;;;;;;;;4.10;57.70;;;3.03;46.62;102197.16;4997917;28;19936;-87
2023/02/09 09:34:53;;;;;;;;;;;4.10;58.40;;;3.02;46.64;102203.38;5001405;28;19940;-86
2023/02/09 09:37:22;;;;;;;;;;;4.10;58.00;;;3.04;46.50;102196.22;4989706;28;19929;-86
2023/02/09 09:39:49;;;;;;;;;;;4.20;58.00;;;3.06;46.60;102191.63;4972995;28;20404;-87
2023/02/09 09:42:23;;;;;;;;;;;4.20;58.30;;;3.07;45.92;102184.56;4972594;28;19926;-86
2023/02/09 09:44:50;;;;;;;;;;;4.20;57.10;;;3.04;46.57;102195.38;5010998;28;19965;-87
2023/02/09 09:47:20;;;;;;;;;;;4.20;58.30;;;3.06;46.76;102198.72;5001381;28;19937;-87
2023/02/09 09:49:48;;;;;;;;;;;4.20;58.00;;;3.09;46.53;102190.56;4998057;28;19929;-86
2023/02/09 09:52:19;;;;;;;;;;;4.20;58.10;;;3.12;46.66;102186.84;4972517;28;19972;-86
2023/02/09 09:54:47;;;;;;;;;;;4.20;58.20;;;3.12;46.51;102198.22;5012404;28;20029;-86
2023/02/09 09:57:19;;;;;;;;;;;4.20;58.50;;;3.15;46.58;102202.44;4994788;28;19957;-86
2023/02/09 09:59:47;;;;;;;;;;;4.20;58.20;;;3.14;46.66;102196.31;4976359;28;20032;-88
2023/02/09 10:02:22;;;;;;;;;;;4.30;58.50;;;3.18;46.51;102199.56;4975799;28;19941;-86
2023/02/09 10:04:49;;;;;;;;;;;4.30;57.90;;;3.18;46.40;102186.38;4983271;28;19929;-87
2023/02/09 10:07:18;;;;;;;;;;;4.30;58.50;;;3.19;46.54;102178.34;4985371;28;20024;-86
2023/02/09 10:09:49;;;;;;;;;;;4.30;58.70;;;3.22;46.61;102164.94;4976257;28;19937;-85
2023/02/09 10:12:31;;;;;;;;;;;4.50;58.30;;;3.18;45.99;102160.88;4996681;28;19976;-85
2023/02/09 10:14:58;;;;;;;;;;;4.30;58.20;;;3.18;45.81;102168.78;5012171;28;19969;-87
2023/02/09 10:17:25;;;;;;;;;;;4.30;57.80;;;3.20;46.20;102155.47;4994772;28;19936;-86
2023/02/09 10:20:03;;;;;;;;;;;4.30;58.10;;;3.28;46.58;102153.06;4999927;28;19929;-87
2023/02/09 10:22:30;;;;;;;;;;;4.40;58.30;;;3.25;46.19;102167.31;5007357;28;20720;-87
2023/02/09 10:24:59;;;;;;;;;;;4.40;57.90;;;3.25;46.48;102162.03;4995318;28;19929;-87
2023/02/09 10:27:27;;;;;;;;;;;4.40;58.20;;;3.24;46.31;102160.38;4994075;28;19929;-88
2023/02/09 10:29:55;;;;;;;;;;;4.40;57.90;;;3.30;46.38;102161.69;5011454;28;19952;-87
2023/02/09 10:32:27;;;;;;;;;;;4.40;58.20;;;3.31;45.90;102171.25;5012117;28;19930;-87
2023/02/09 10:35:01;;;;;;;;;;;4.40;57.70;;;3.36;45.91;102174.38;5011273;28;20011;-87
2023/02/09 10:37:35;;;;;;;;;;;4.50;58.10;;;3.42;45.74;102162.53;5017629;28;19933;-86
2023/02/09 10:40:14;;;;;;;;;;;4.50;57.90;;;3.45;45.65;102178.91;5002787;28;19930;-87
2023/02/09 10:42:42;;;;;;;;;;;4.50;57.60;;;3.46;44.08;102177.09;5004566;28;19930;-86
2023/02/09 10:45:14;;;;;;;;;;;4.50;55.50;;;3.46;44.97;102164.75;4999548;28;19936;-87
2023/02/09 10:47:41;;;;;;;;;;;4.50;57.00;;;3.44;44.50;102153.50;4990685;28;19930;-87
2023/02/09 10:50:18;;;;;;;;;;;4.50;55.90;;;3.40;45.12;102152.06;4994191;28;20043;-87
2023/02/09 10:52:56;;;;;;;;;;;4.50;56.30;;;3.41;45.15;102150.25;4992596;28;19937;-88
2023/02/09 10:55:28;;;;;;;;;;;4.50;56.90;;;3.41;44.69;102160.81;4986429;28;20393;-88
2023/02/09 10:58:10;;;;;;;;;;;4.50;56.00;;;3.44;44.62;102166.69;4988758;28;19929;-87
2023/02/09 11:00:43;;;;;;;;;;;4.50;55.70;;;3.46;44.89;102163.91;4974955;28;19980;-86
2023/02/09 11:03:16;;;;;;;;;;;4.50;56.60;;;3.51;45.42;102165.22;4982339;28;19930;-88
2023/02/09 11:05:45;;;;;;;;;;;4.60;57.40;;;3.55;45.25;102158.75;5005323;28;19932;-86
2023/02/09 11:08:22;;;;;;;;;;;4.60;57.30;;;3.59;44.83;102152.25;5005181;28;19933;-87
2023/02/09 11:11:04;;;;;;;;;;;4.70;56.90;;;3.59;44.57;102149.63;4991626;28;20348;-87
2023/02/09 11:13:33;;;;;;;;;;;4.70;56.10;;;3.61;44.38;102138.94;4983788;28;20411;-87
2023/02/09 11:16:19;;;;;;;;;;;4.70;55.90;;;3.57;44.48;102148.94;4996926;28;19929;-88
2023/02/09 11:18:51;;;;;;;;;;;4.70;56.00;;;3.59;44.90;102147.00;4996420;28;19926;-87
2023/02/09 11:21:28;;;;;;;;;;;4.70;56.30;;;3.64;45.11;102145.78;4992334;28;20709;-87
2023/02/09 11:23:59;;;;;;;;;;;4.80;56.70;;;3.65;45.53;102155.38;4982407;28;19933;-88
2023/02/09 11:26:38;;;;;;;;;;;4.80;57.10;;;3.68;45.09;102161.25;5007265;28;19931;-88
2023/02/09 11:29:10;;;;;;;;;;;4.80;56.90;;;3.73;45.18;102156.44;4988488;28;20045;-89
2023/02/09 11:31:54;;;;;;;;;;;4.80;57.10;;;3.76;44.71;102150.91;5001720;28;20005;-85
2023/02/09 11:34:41;;;;;;;;;;;4.80;56.10;;;3.80;45.10;102138.28;4987793;28;19929;-87
2023/02/09 11:37:23;;;;;;;;;;;4.80;56.50;;;3.79;45.13;102155.91;4998639;28;19933;-88
2023/02/09 11:39:55;;;;;;;;;;;4.90;56.80;;;3.79;45.10;102148.00;5000550;28;20633;-88
2023/02/09 11:42:45;;;;;;;;;;;4.90;56.60;;;3.78;44.63;102129.66;5008955;28;19936;-88